Overview Statistics Trail Chart Weather Telemetry Raw packets
 

This is the latest recevied weather packets stored in our database for station/object K1BES. If no packets are shown the sender has not sent any weather packets the latest 10 day(s).

<< 17 18 19 20 21 22 23 >>
Time Temp. Humidity Pressure Rain* Wind** Luminosity Snow
1788528233 27.22° C 94% 1017.7 hPa 22.86 mm - 245 W/m² -
1788527933 27.22° C 94% 1017.6 hPa 1.27 mm - 153 W/m² -
1788527629 27.78° C 95% 1017.5 hPa 0 mm - 117 W/m² -
1788527329 27.78° C 95% 1017.6 hPa 0 mm - 82 W/m² -
1788527028 27.78° C 95% 1017.4 hPa 0 mm - 79 W/m² -
1788526723 27.78° C 94% 1017.5 hPa 10.67 mm - 106 W/m² -
1788526420 28.33° C 94% 1017.5 hPa 19.81 mm - 158 W/m² -
1788526118 28.33° C 95% 1017.5 hPa 3.05 mm - 137 W/m² -
1788525815 27.78° C 95% 1017.3 hPa 0 mm - 121 W/m² -
1788525510 27.78° C 96% 1017.3 hPa 0 mm - 134 W/m² -
1788525205 27.78° C 98% 1017.1 hPa 0 mm - 190 W/m² -
1788524900 27.22° C 98% 1017.1 hPa 0 mm - 169 W/m² -
1788524600 26.67° C 98% 1017.2 hPa 0 mm - 114 W/m² -
1788524295 26.67° C 97% 1016.9 hPa 0 mm - 91 W/m² -
1788523992 26.67° C 97% 1017 hPa 0 mm - 77 W/m² -
1788523688 26.67° C 98% 1017.2 hPa 0 mm - 118 W/m² -
1788523383 26.67° C 98% 1017.3 hPa 0 mm - 94 W/m² -
1788523078 26.67° C 98% 1017.3 hPa 0 mm - 96 W/m² -
1788522774 26.67° C 98% 1017.1 hPa 0 mm - 81 W/m² -
1788522468 26.11° C 97% 1017 hPa 0 mm - 63 W/m² -
1788522168 26.11° C 97% 1016.8 hPa 0 mm - 52 W/m² -
1788521863 26.11° C 97% 1017.1 hPa 4.83 mm - 64 W/m² -
1788521562 26.11° C 97% 1016.7 hPa 6.1 mm - 55 W/m² -
1788521257 26.11° C 97% 1016.6 hPa 1.27 mm - 40 W/m² -
1788520953 26.11° C 97% 1016.6 hPa 0 mm - 17 W/m² -

* Rain latest hour (hover to see other rain measurements)
** Current wind speed in m/s (hover to see current wind gust speed)